sensor_id;sensor_type;location;lat;lon;timestamp;temperature;humidity
39315;DHT22;28703;44.412;11.918;2023-04-07T00:00:57;9.00;84.90
39315;DHT22;28703;44.412;11.918;2023-04-07T00:03:23;9.00;85.20
39315;DHT22;28703;44.412;11.918;2023-04-07T00:05:49;8.90;84.90
39315;DHT22;28703;44.412;11.918;2023-04-07T00:08:14;8.90;84.70
39315;DHT22;28703;44.412;11.918;2023-04-07T00:10:40;8.90;84.80
39315;DHT22;28703;44.412;11.918;2023-04-07T00:13:06;8.90;84.70
39315;DHT22;28703;44.412;11.918;2023-04-07T00:15:32;8.80;84.60
39315;DHT22;28703;44.412;11.918;2023-04-07T00:20:42;8.80;85.10
39315;DHT22;28703;44.412;11.918;2023-04-07T00:23:11;8.80;85.10
39315;DHT22;28703;44.412;11.918;2023-04-07T00:25:46;8.70;85.10
39315;DHT22;28703;44.412;11.918;2023-04-07T00:28:13;8.70;85.70
39315;DHT22;28703;44.412;11.918;2023-04-07T00:30:45;8.70;85.20
39315;DHT22;28703;44.412;11.918;2023-04-07T00:33:11;8.60;85.30
39315;DHT22;28703;44.412;11.918;2023-04-07T00:35:42;8.60;85.50
39315;DHT22;28703;44.412;11.918;2023-04-07T00:38:12;8.60;85.70
39315;DHT22;28703;44.412;11.918;2023-04-07T00:40:49;8.60;85.50
39315;DHT22;28703;44.412;11.918;2023-04-07T00:43:17;8.60;85.60
39315;DHT22;28703;44.412;11.918;2023-04-07T00:45:44;8.50;85.70
39315;DHT22;28703;44.412;11.918;2023-04-07T00:48:10;8.50;85.80
39315;DHT22;28703;44.412;11.918;2023-04-07T00:50:36;8.50;86.00
39315;DHT22;28703;44.412;11.918;2023-04-07T00:53:02;8.50;86.30
39315;DHT22;28703;44.412;11.918;2023-04-07T00:55:28;8.40;86.30
39315;DHT22;28703;44.412;11.918;2023-04-07T00:57:54;8.40;86.60
39315;DHT22;28703;44.412;11.918;2023-04-07T01:00:20;8.40;86.40
39315;DHT22;28703;44.412;11.918;2023-04-07T01:02:56;8.30;86.50
39315;DHT22;28703;44.412;11.918;2023-04-07T01:05:31;8.30;86.50
39315;DHT22;28703;44.412;11.918;2023-04-07T01:16:12;8.30;86.50
39315;DHT22;28703;44.412;11.918;2023-04-07T01:18:45;8.20;86.30
39315;DHT22;28703;44.412;11.918;2023-04-07T01:21:13;8.20;86.30
39315;DHT22;28703;44.412;11.918;2023-04-07T01:26:22;8.20;86.50
39315;DHT22;28703;44.412;11.918;2023-04-07T01:31:15;8.10;87.30
39315;DHT22;28703;44.412;11.918;2023-04-07T01:33:44;8.10;87.00
39315;DHT22;28703;44.412;11.918;2023-04-07T01:36:11;8.10;86.80
39315;DHT22;28703;44.412;11.918;2023-04-07T01:38:36;8.20;86.90
39315;DHT22;28703;44.412;11.918;2023-04-07T01:41:03;8.10;86.70
39315;DHT22;28703;44.412;11.918;2023-04-07T01:43:29;8.10;87.00
39315;DHT22;28703;44.412;11.918;2023-04-07T01:45:55;8.10;87.20
39315;DHT22;28703;44.412;11.918;2023-04-07T01:48:21;8.10;87.40
39315;DHT22;28703;44.412;11.918;2023-04-07T01:50:47;8.10;87.10
39315;DHT22;28703;44.412;11.918;2023-04-07T01:53:14;8.00;87.10
39315;DHT22;28703;44.412;11.918;2023-04-07T01:55:40;8.00;87.10
39315;DHT22;28703;44.412;11.918;2023-04-07T01:58:07;8.00;87.40
39315;DHT22;28703;44.412;11.918;2023-04-07T02:00:36;8.00;87.20
39315;DHT22;28703;44.412;11.918;2023-04-07T02:03:22;7.90;87.20
39315;DHT22;28703;44.412;11.918;2023-04-07T02:05:57;7.90;87.90
39315;DHT22;28703;44.412;11.918;2023-04-07T02:08:28;7.90;87.10
39315;DHT22;28703;44.412;11.918;2023-04-07T02:10:55;7.90;87.50
39315;DHT22;28703;44.412;11.918;2023-04-07T02:13:22;7.80;87.40
39315;DHT22;28703;44.412;11.918;2023-04-07T02:15:50;7.90;87.30
39315;DHT22;28703;44.412;11.918;2023-04-07T02:18:17;7.80;87.00
39315;DHT22;28703;44.412;11.918;2023-04-07T02:20:44;7.80;87.50
39315;DHT22;28703;44.412;11.918;2023-04-07T02:23:11;7.80;87.50
39315;DHT22;28703;44.412;11.918;2023-04-07T02:25:37;7.80;87.50
39315;DHT22;28703;44.412;11.918;2023-04-07T02:28:03;7.80;87.50
39315;DHT22;28703;44.412;11.918;2023-04-07T02:30:29;7.80;87.40
39315;DHT22;28703;44.412;11.918;2023-04-07T02:32:55;7.70;87.30
39315;DHT22;28703;44.412;11.918;2023-04-07T02:35:21;7.70;87.20
39315;DHT22;28703;44.412;11.918;2023-04-07T02:37:47;7.70;87.50
39315;DHT22;28703;44.412;11.918;2023-04-07T02:40:12;7.70;87.10
39315;DHT22;28703;44.412;11.918;2023-04-07T02:42:38;7.70;87.10
39315;DHT22;28703;44.412;11.918;2023-04-07T02:45:05;7.70;87.40
39315;DHT22;28703;44.412;11.918;2023-04-07T02:47:32;7.70;87.70
39315;DHT22;28703;44.412;11.918;2023-04-07T02:49:57;7.70;87.50
39315;DHT22;28703;44.412;11.918;2023-04-07T02:52:24;7.70;87.60
39315;DHT22;28703;44.412;11.918;2023-04-07T02:54:50;7.60;88.00
39315;DHT22;28703;44.412;11.918;2023-04-07T02:57:19;7.60;88.10
39315;DHT22;28703;44.412;11.918;2023-04-07T02:59:47;7.60;87.90
39315;DHT22;28703;44.412;11.918;2023-04-07T03:02:14;7.50;88.20
39315;DHT22;28703;44.412;11.918;2023-04-07T03:04:40;7.50;88.00
39315;DHT22;28703;44.412;11.918;2023-04-07T03:07:06;7.50;87.90
39315;DHT22;28703;44.412;11.918;2023-04-07T03:09:32;7.40;88.00
39315;DHT22;28703;44.412;11.918;2023-04-07T03:11:58;7.40;87.90
39315;DHT22;28703;44.412;11.918;2023-04-07T03:14:28;7.40;88.10
39315;DHT22;28703;44.412;11.918;2023-04-07T03:16:55;7.30;87.90
39315;DHT22;28703;44.412;11.918;2023-04-07T03:19:22;7.40;87.70
39315;DHT22;28703;44.412;11.918;2023-04-07T03:21:49;7.30;87.80
39315;DHT22;28703;44.412;11.918;2023-04-07T03:24:15;7.40;87.90
39315;DHT22;28703;44.412;11.918;2023-04-07T03:26:41;7.40;87.90
39315;DHT22;28703;44.412;11.918;2023-04-07T03:29:16;7.30;88.00
39315;DHT22;28703;44.412;11.918;2023-04-07T03:31:42;7.30;87.80
39315;DHT22;28703;44.412;11.918;2023-04-07T03:34:11;7.30;88.00
39315;DHT22;28703;44.412;11.918;2023-04-07T03:36:38;7.40;88.00
39315;DHT22;28703;44.412;11.918;2023-04-07T03:39:04;7.40;88.20
39315;DHT22;28703;44.412;11.918;2023-04-07T03:41:30;7.40;88.40
39315;DHT22;28703;44.412;11.918;2023-04-07T03:43:56;7.40;88.20
39315;DHT22;28703;44.412;11.918;2023-04-07T03:46:22;7.40;88.00
39315;DHT22;28703;44.412;11.918;2023-04-07T03:48:49;7.40;88.20
39315;DHT22;28703;44.412;11.918;2023-04-07T03:51:15;7.30;87.90
39315;DHT22;28703;44.412;11.918;2023-04-07T03:53:43;7.30;88.20
39315;DHT22;28703;44.412;11.918;2023-04-07T03:56:21;7.30;88.30
39315;DHT22;28703;44.412;11.918;2023-04-07T03:58:49;7.20;88.30
39315;DHT22;28703;44.412;11.918;2023-04-07T04:01:23;7.20;88.20
39315;DHT22;28703;44.412;11.918;2023-04-07T04:03:49;7.10;88.20
39315;DHT22;28703;44.412;11.918;2023-04-07T04:06:33;7.10;88.70
39315;DHT22;28703;44.412;11.918;2023-04-07T04:09:09;7.10;88.70
39315;DHT22;28703;44.412;11.918;2023-04-07T04:11:40;7.10;88.60
39315;DHT22;28703;44.412;11.918;2023-04-07T04:14:06;7.00;88.70
39315;DHT22;28703;44.412;11.918;2023-04-07T04:16:34;7.00;88.60
39315;DHT22;28703;44.412;11.918;2023-04-07T04:19:03;7.00;88.70
39315;DHT22;28703;44.412;11.918;2023-04-07T04:21:30;7.00;88.70
39315;DHT22;28703;44.412;11.918;2023-04-07T04:23:56;6.90;88.80
39315;DHT22;28703;44.412;11.918;2023-04-07T04:26:22;6.90;89.30
39315;DHT22;28703;44.412;11.918;2023-04-07T04:28:52;6.90;89.20
39315;DHT22;28703;44.412;11.918;2023-04-07T04:31:20;6.80;89.70
39315;DHT22;28703;44.412;11.918;2023-04-07T04:33:46;6.80;89.40
39315;DHT22;28703;44.412;11.918;2023-04-07T04:36:12;6.80;89.00
39315;DHT22;28703;44.412;11.918;2023-04-07T04:38:39;6.80;89.20
39315;DHT22;28703;44.412;11.918;2023-04-07T04:41:22;6.80;89.30
39315;DHT22;28703;44.412;11.918;2023-04-07T04:43:49;6.80;89.40
39315;DHT22;28703;44.412;11.918;2023-04-07T04:46:20;6.80;89.40
39315;DHT22;28703;44.412;11.918;2023-04-07T04:48:48;6.70;89.80
39315;DHT22;28703;44.412;11.918;2023-04-07T04:51:16;6.70;89.70
39315;DHT22;28703;44.412;11.918;2023-04-07T04:53:46;6.70;89.70
39315;DHT22;28703;44.412;11.918;2023-04-07T04:56:12;6.70;90.00
39315;DHT22;28703;44.412;11.918;2023-04-07T04:58:42;6.70;89.90
39315;DHT22;28703;44.412;11.918;2023-04-07T05:01:14;6.70;89.70
39315;DHT22;28703;44.412;11.918;2023-04-07T05:03:46;6.70;89.80
39315;DHT22;28703;44.412;11.918;2023-04-07T05:06:17;6.70;90.00
39315;DHT22;28703;44.412;11.918;2023-04-07T05:08:45;6.70;89.90
39315;DHT22;28703;44.412;11.918;2023-04-07T05:11:13;6.70;90.00
39315;DHT22;28703;44.412;11.918;2023-04-07T05:13:39;6.70;90.00
39315;DHT22;28703;44.412;11.918;2023-04-07T05:16:05;6.70;90.00
39315;DHT22;28703;44.412;11.918;2023-04-07T05:18:32;6.70;90.00
39315;DHT22;28703;44.412;11.918;2023-04-07T05:20:59;6.70;90.10
39315;DHT22;28703;44.412;11.918;2023-04-07T05:23:26;6.70;90.20
39315;DHT22;28703;44.412;11.918;2023-04-07T05:25:55;6.70;90.40
39315;DHT22;28703;44.412;11.918;2023-04-07T05:28:21;6.70;90.40
39315;DHT22;28703;44.412;11.918;2023-04-07T05:30:49;6.80;90.40
39315;DHT22;28703;44.412;11.918;2023-04-07T05:33:15;6.70;90.40
39315;DHT22;28703;44.412;11.918;2023-04-07T05:35:45;6.80;90.50
39315;DHT22;28703;44.412;11.918;2023-04-07T05:38:12;6.80;90.40
39315;DHT22;28703;44.412;11.918;2023-04-07T05:40:39;6.80;90.40
39315;DHT22;28703;44.412;11.918;2023-04-07T05:43:07;6.80;90.40
39315;DHT22;28703;44.412;11.918;2023-04-07T05:45:34;6.90;90.60
39315;DHT22;28703;44.412;11.918;2023-04-07T05:48:00;6.90;90.60
39315;DHT22;28703;44.412;11.918;2023-04-07T05:50:35;7.00;90.70
39315;DHT22;28703;44.412;11.918;2023-04-07T05:53:04;7.00;90.70
39315;DHT22;28703;44.412;11.918;2023-04-07T05:55:33;7.10;90.70
39315;DHT22;28703;44.412;11.918;2023-04-07T05:58:03;7.10;90.60
39315;DHT22;28703;44.412;11.918;2023-04-07T06:00:31;7.20;90.80
39315;DHT22;28703;44.412;11.918;2023-04-07T06:03:11;7.20;90.80
39315;DHT22;28703;44.412;11.918;2023-04-07T06:05:49;7.40;90.90
39315;DHT22;28703;44.412;11.918;2023-04-07T06:08:18;7.40;91.00
39315;DHT22;28703;44.412;11.918;2023-04-07T06:10:44;7.40;90.90
39315;DHT22;28703;44.412;11.918;2023-04-07T06:13:10;7.50;90.90
39315;DHT22;28703;44.412;11.918;2023-04-07T06:15:37;7.50;90.70
39315;DHT22;28703;44.412;11.918;2023-04-07T06:18:03;7.60;91.00
39315;DHT22;28703;44.412;11.918;2023-04-07T06:20:29;7.60;90.80
39315;DHT22;28703;44.412;11.918;2023-04-07T06:22:57;7.70;90.80
39315;DHT22;28703;44.412;11.918;2023-04-07T06:25:25;7.70;90.80
39315;DHT22;28703;44.412;11.918;2023-04-07T06:27:52;7.80;90.70
39315;DHT22;28703;44.412;11.918;2023-04-07T06:30:18;7.80;90.70
39315;DHT22;28703;44.412;11.918;2023-04-07T06:32:44;7.90;90.60
39315;DHT22;28703;44.412;11.918;2023-04-07T06:35:10;8.00;90.50
39315;DHT22;28703;44.412;11.918;2023-04-07T06:37:36;8.00;90.10
39315;DHT22;28703;44.412;11.918;2023-04-07T06:40:01;8.00;89.00
39315;DHT22;28703;44.412;11.918;2023-04-07T06:42:27;8.10;88.90
39315;DHT22;28703;44.412;11.918;2023-04-07T06:45:04;8.20;88.80
39315;DHT22;28703;44.412;11.918;2023-04-07T06:47:30;8.20;88.60
39315;DHT22;28703;44.412;11.918;2023-04-07T06:49:56;8.30;87.20
39315;DHT22;28703;44.412;11.918;2023-04-07T06:52:22;8.40;87.40
39315;DHT22;28703;44.412;11.918;2023-04-07T06:54:47;8.40;87.70
39315;DHT22;28703;44.412;11.918;2023-04-07T06:57:13;8.50;87.20
39315;DHT22;28703;44.412;11.918;2023-04-07T06:59:39;8.50;87.00
39315;DHT22;28703;44.412;11.918;2023-04-07T07:02:05;8.60;87.30
39315;DHT22;28703;44.412;11.918;2023-04-07T07:04:32;8.60;87.40
39315;DHT22;28703;44.412;11.918;2023-04-07T07:07:01;8.70;87.10
39315;DHT22;28703;44.412;11.918;2023-04-07T07:09:27;8.80;87.40
39315;DHT22;28703;44.412;11.918;2023-04-07T07:11:53;8.90;87.20
39315;DHT22;28703;44.412;11.918;2023-04-07T07:14:19;8.90;87.10
39315;DHT22;28703;44.412;11.918;2023-04-07T07:16:44;9.00;87.20
39315;DHT22;28703;44.412;11.918;2023-04-07T07:19:11;9.10;87.90
39315;DHT22;28703;44.412;11.918;2023-04-07T07:21:39;9.10;87.10
39315;DHT22;28703;44.412;11.918;2023-04-07T07:24:05;9.30;87.10
39315;DHT22;28703;44.412;11.918;2023-04-07T07:26:31;9.30;86.90
39315;DHT22;28703;44.412;11.918;2023-04-07T07:28:57;9.40;87.00
39315;DHT22;28703;44.412;11.918;2023-04-07T07:31:23;9.50;87.20
39315;DHT22;28703;44.412;11.918;2023-04-07T07:33:48;9.50;87.50
39315;DHT22;28703;44.412;11.918;2023-04-07T07:36:16;9.60;87.50
39315;DHT22;28703;44.412;11.918;2023-04-07T07:38:42;9.70;87.40
39315;DHT22;28703;44.412;11.918;2023-04-07T07:41:08;9.80;87.10
39315;DHT22;28703;44.412;11.918;2023-04-07T07:43:34;9.80;87.10
39315;DHT22;28703;44.412;11.918;2023-04-07T07:46:00;9.90;87.80
39315;DHT22;28703;44.412;11.918;2023-04-07T07:48:25;10.00;88.00
39315;DHT22;28703;44.412;11.918;2023-04-07T07:50:51;10.00;87.60
39315;DHT22;28703;44.412;11.918;2023-04-07T07:53:17;10.10;87.30
39315;DHT22;28703;44.412;11.918;2023-04-07T07:55:45;10.10;87.30
39315;DHT22;28703;44.412;11.918;2023-04-07T07:58:11;10.20;87.00
39315;DHT22;28703;44.412;11.918;2023-04-07T08:00:37;10.30;87.00
39315;DHT22;28703;44.412;11.918;2023-04-07T08:03:03;10.40;86.70
39315;DHT22;28703;44.412;11.918;2023-04-07T08:05:28;10.40;86.20
39315;DHT22;28703;44.412;11.918;2023-04-07T08:07:54;10.50;85.50
39315;DHT22;28703;44.412;11.918;2023-04-07T08:13:06;10.60;84.50
39315;DHT22;28703;44.412;11.918;2023-04-07T08:15:32;10.70;84.80
39315;DHT22;28703;44.412;11.918;2023-04-07T08:17:58;10.80;84.70
39315;DHT22;28703;44.412;11.918;2023-04-07T08:20:25;10.80;84.30
39315;DHT22;28703;44.412;11.918;2023-04-07T08:22:54;10.90;84.70
39315;DHT22;28703;44.412;11.918;2023-04-07T08:25:38;11.00;83.90
39315;DHT22;28703;44.412;11.918;2023-04-07T08:28:07;11.10;83.80
39315;DHT22;28703;44.412;11.918;2023-04-07T08:30:33;11.10;83.40
39315;DHT22;28703;44.412;11.918;2023-04-07T08:32:58;11.20;83.80
39315;DHT22;28703;44.412;11.918;2023-04-07T08:35:43;11.30;83.30
39315;DHT22;28703;44.412;11.918;2023-04-07T08:38:08;11.30;83.10
39315;DHT22;28703;44.412;11.918;2023-04-07T08:40:34;11.40;83.40
39315;DHT22;28703;44.412;11.918;2023-04-07T08:43:00;11.60;82.70
39315;DHT22;28703;44.412;11.918;2023-04-07T08:45:29;11.50;82.80
39315;DHT22;28703;44.412;11.918;2023-04-07T08:47:55;11.60;82.60
39315;DHT22;28703;44.412;11.918;2023-04-07T08:50:25;11.70;81.80
39315;DHT22;28703;44.412;11.918;2023-04-07T08:55:17;11.90;82.10
39315;DHT22;28703;44.412;11.918;2023-04-07T08:57:43;11.90;81.70
39315;DHT22;28703;44.412;11.918;2023-04-07T09:00:10;12.00;81.10
39315;DHT22;28703;44.412;11.918;2023-04-07T09:05:21;12.10;80.30
39315;DHT22;28703;44.412;11.918;2023-04-07T09:07:49;12.20;79.40
39315;DHT22;28703;44.412;11.918;2023-04-07T09:10:15;12.30;79.10
39315;DHT22;28703;44.412;11.918;2023-04-07T09:12:41;12.30;79.00
39315;DHT22;28703;44.412;11.918;2023-04-07T09:15:07;12.40;79.20
39315;DHT22;28703;44.412;11.918;2023-04-07T09:17:33;12.50;79.60
39315;DHT22;28703;44.412;11.918;2023-04-07T09:20:00;12.50;77.90
39315;DHT22;28703;44.412;11.918;2023-04-07T09:22:39;12.60;78.20
39315;DHT22;28703;44.412;11.918;2023-04-07T09:27:35;12.80;78.20
39315;DHT22;28703;44.412;11.918;2023-04-07T09:30:11;12.90;76.70
39315;DHT22;28703;44.412;11.918;2023-04-07T09:32:37;12.90;77.00
39315;DHT22;28703;44.412;11.918;2023-04-07T09:35:03;13.00;77.90
39315;DHT22;28703;44.412;11.918;2023-04-07T09:37:29;13.10;73.10
39315;DHT22;28703;44.412;11.918;2023-04-07T09:39:55;13.10;73.40
39315;DHT22;28703;44.412;11.918;2023-04-07T09:42:20;13.20;75.50
39315;DHT22;28703;44.412;11.918;2023-04-07T09:44:46;13.30;74.30
39315;DHT22;28703;44.412;11.918;2023-04-07T09:47:13;13.30;71.80
39315;DHT22;28703;44.412;11.918;2023-04-07T09:49:52;13.40;73.20
39315;DHT22;28703;44.412;11.918;2023-04-07T09:52:21;13.50;74.60
39315;DHT22;28703;44.412;11.918;2023-04-07T09:54:47;13.50;73.90
39315;DHT22;28703;44.412;11.918;2023-04-07T09:57:13;13.60;73.90
39315;DHT22;28703;44.412;11.918;2023-04-07T10:00:04;13.60;73.70
39315;DHT22;28703;44.412;11.918;2023-04-07T10:02:54;13.80;71.70
39315;DHT22;28703;44.412;11.918;2023-04-07T10:05:21;13.80;72.00
39315;DHT22;28703;44.412;11.918;2023-04-07T10:07:47;13.90;73.00
39315;DHT22;28703;44.412;11.918;2023-04-07T10:10:13;14.00;72.70
39315;DHT22;28703;44.412;11.918;2023-04-07T10:12:57;14.00;72.40
39315;DHT22;28703;44.412;11.918;2023-04-07T10:15:23;14.10;72.00
39315;DHT22;28703;44.412;11.918;2023-04-07T10:17:49;14.20;71.10
39315;DHT22;28703;44.412;11.918;2023-04-07T10:20:16;14.30;71.90
39315;DHT22;28703;44.412;11.918;2023-04-07T10:22:43;14.30;71.70
39315;DHT22;28703;44.412;11.918;2023-04-07T10:25:11;14.40;72.20
39315;DHT22;28703;44.412;11.918;2023-04-07T10:27:58;14.50;72.70
39315;DHT22;28703;44.412;11.918;2023-04-07T10:30:27;14.60;73.10
39315;DHT22;28703;44.412;11.918;2023-04-07T10:33:12;14.60;73.30
39315;DHT22;28703;44.412;11.918;2023-04-07T10:38:22;14.70;73.20
39315;DHT22;28703;44.412;11.918;2023-04-07T10:40:48;14.80;73.30
39315;DHT22;28703;44.412;11.918;2023-04-07T10:43:14;14.90;72.50
39315;DHT22;28703;44.412;11.918;2023-04-07T10:45:59;14.90;71.20
39315;DHT22;28703;44.412;11.918;2023-04-07T10:48:25;15.00;71.60
39315;DHT22;28703;44.412;11.918;2023-04-07T10:53:31;15.20;72.80
39315;DHT22;28703;44.412;11.918;2023-04-07T10:55:58;15.30;72.00
39315;DHT22;28703;44.412;11.918;2023-04-07T10:58:24;15.30;70.60
39315;DHT22;28703;44.412;11.918;2023-04-07T11:03:55;15.30;70.90
39315;DHT22;28703;44.412;11.918;2023-04-07T11:06:21;15.40;71.70
39315;DHT22;28703;44.412;11.918;2023-04-07T11:08:47;15.50;71.30
39315;DHT22;28703;44.412;11.918;2023-04-07T11:11:16;15.60;71.90
39315;DHT22;28703;44.412;11.918;2023-04-07T11:13:42;15.60;70.50
39315;DHT22;28703;44.412;11.918;2023-04-07T11:16:10;15.70;70.60
39315;DHT22;28703;44.412;11.918;2023-04-07T11:21:10;15.90;70.80
39315;DHT22;28703;44.412;11.918;2023-04-07T11:26:21;16.10;71.60
39315;DHT22;28703;44.412;11.918;2023-04-07T11:28:49;16.30;70.10
39315;DHT22;28703;44.412;11.918;2023-04-07T11:31:26;16.40;69.20
39315;DHT22;28703;44.412;11.918;2023-04-07T11:34:11;16.50;71.10
39315;DHT22;28703;44.412;11.918;2023-04-07T11:36:37;16.70;71.80
39315;DHT22;28703;44.412;11.918;2023-04-07T11:39:03;16.80;70.80
39315;DHT22;28703;44.412;11.918;2023-04-07T11:41:30;16.90;71.70
39315;DHT22;28703;44.412;11.918;2023-04-07T11:46:32;17.10;74.20
39315;DHT22;28703;44.412;11.918;2023-04-07T11:49:07;17.20;74.80
39315;DHT22;28703;44.412;11.918;2023-04-07T11:51:58;17.20;73.80
39315;DHT22;28703;44.412;11.918;2023-04-07T11:54:25;17.30;72.90
39315;DHT22;28703;44.412;11.918;2023-04-07T11:56:51;17.40;74.30
39315;DHT22;28703;44.412;11.918;2023-04-07T11:59:20;17.40;75.50
39315;DHT22;28703;44.412;11.918;2023-04-07T12:01:48;17.40;75.80
39315;DHT22;28703;44.412;11.918;2023-04-07T12:07:07;17.50;75.80
39315;DHT22;28703;44.412;11.918;2023-04-07T12:09:34;17.60;76.20
39315;DHT22;28703;44.412;11.918;2023-04-07T12:12:04;17.60;75.00
39315;DHT22;28703;44.412;11.918;2023-04-07T12:14:33;17.70;74.20
39315;DHT22;28703;44.412;11.918;2023-04-07T12:16:59;17.70;75.10
39315;DHT22;28703;44.412;11.918;2023-04-07T12:19:28;17.80;74.40
39315;DHT22;28703;44.412;11.918;2023-04-07T12:22:13;17.80;74.40
39315;DHT22;28703;44.412;11.918;2023-04-07T12:24:39;17.90;74.90
39315;DHT22;28703;44.412;11.918;2023-04-07T12:27:05;17.90;76.00
39315;DHT22;28703;44.412;11.918;2023-04-07T12:29:49;17.90;75.90
39315;DHT22;28703;44.412;11.918;2023-04-07T12:32:15;18.00;75.90
39315;DHT22;28703;44.412;11.918;2023-04-07T12:37:25;18.00;75.80
39315;DHT22;28703;44.412;11.918;2023-04-07T12:39:51;18.10;76.10
39315;DHT22;28703;44.412;11.918;2023-04-07T12:42:17;18.10;75.00
39315;DHT22;28703;44.412;11.918;2023-04-07T12:45:02;18.20;74.10
39315;DHT22;28703;44.412;11.918;2023-04-07T12:47:46;18.20;74.90
39315;DHT22;28703;44.412;11.918;2023-04-07T12:50:11;18.20;75.40
39315;DHT22;28703;44.412;11.918;2023-04-07T12:52:37;18.30;75.00
39315;DHT22;28703;44.412;11.918;2023-04-07T12:55:03;18.30;74.10
39315;DHT22;28703;44.412;11.918;2023-04-07T12:57:29;18.30;73.20
39315;DHT22;28703;44.412;11.918;2023-04-07T12:59:55;18.30;72.60
39315;DHT22;28703;44.412;11.918;2023-04-07T13:02:21;18.30;72.10
39315;DHT22;28703;44.412;11.918;2023-04-07T13:04:47;18.30;72.10
39315;DHT22;28703;44.412;11.918;2023-04-07T13:07:13;18.30;71.90
39315;DHT22;28703;44.412;11.918;2023-04-07T13:10:16;18.30;71.90
39315;DHT22;28703;44.412;11.918;2023-04-07T13:12:42;18.30;72.10
39315;DHT22;28703;44.412;11.918;2023-04-07T13:15:07;18.40;73.30
39315;DHT22;28703;44.412;11.918;2023-04-07T13:17:33;18.40;74.10
39315;DHT22;28703;44.412;11.918;2023-04-07T13:20:01;18.50;73.90
39315;DHT22;28703;44.412;11.918;2023-04-07T13:22:28;18.60;74.20
39315;DHT22;28703;44.412;11.918;2023-04-07T13:24:54;18.60;73.90
39315;DHT22;28703;44.412;11.918;2023-04-07T13:27:38;18.70;74.80
39315;DHT22;28703;44.412;11.918;2023-04-07T13:30:04;18.80;75.20
39315;DHT22;28703;44.412;11.918;2023-04-07T13:32:30;18.80;75.80
39315;DHT22;28703;44.412;11.918;2023-04-07T13:34:56;18.90;75.20
39315;DHT22;28703;44.412;11.918;2023-04-07T13:37:22;19.00;74.70
39315;DHT22;28703;44.412;11.918;2023-04-07T13:39:48;19.10;74.80
39315;DHT22;28703;44.412;11.918;2023-04-07T13:42:13;19.20;74.80
39315;DHT22;28703;44.412;11.918;2023-04-07T13:44:41;19.30;74.70
39315;DHT22;28703;44.412;11.918;2023-04-07T13:47:26;19.50;74.80
39315;DHT22;28703;44.412;11.918;2023-04-07T13:49:54;19.70;73.90
39315;DHT22;28703;44.412;11.918;2023-04-07T13:52:20;19.80;73.30
39315;DHT22;28703;44.412;11.918;2023-04-07T13:54:46;20.00;72.80
39315;DHT22;28703;44.412;11.918;2023-04-07T13:57:12;20.00;71.50
39315;DHT22;28703;44.412;11.918;2023-04-07T14:02:47;20.10;71.50
39315;DHT22;28703;44.412;11.918;2023-04-07T14:05:31;20.20;70.30
39315;DHT22;28703;44.412;11.918;2023-04-07T14:07:56;20.20;71.20
39315;DHT22;28703;44.412;11.918;2023-04-07T14:10:22;20.10;71.40
39315;DHT22;28703;44.412;11.918;2023-04-07T14:13:06;20.10;71.40
39315;DHT22;28703;44.412;11.918;2023-04-07T14:15:32;20.00;71.80
39315;DHT22;28703;44.412;11.918;2023-04-07T14:17:58;20.00;71.50
39315;DHT22;28703;44.412;11.918;2023-04-07T14:20:25;19.90;70.70
39315;DHT22;28703;44.412;11.918;2023-04-07T14:22:51;19.80;70.70
39315;DHT22;28703;44.412;11.918;2023-04-07T14:25:17;19.70;70.70
39315;DHT22;28703;44.412;11.918;2023-04-07T14:27:42;19.60;71.00
39315;DHT22;28703;44.412;11.918;2023-04-07T14:33:30;19.40;71.30
39315;DHT22;28703;44.412;11.918;2023-04-07T14:35:56;19.30;71.90
39315;DHT22;28703;44.412;11.918;2023-04-07T14:38:22;19.20;72.80
39315;DHT22;28703;44.412;11.918;2023-04-07T14:40:53;19.20;73.00
39315;DHT22;28703;44.412;11.918;2023-04-07T14:43:18;19.10;73.60
39315;DHT22;28703;44.412;11.918;2023-04-07T14:48:28;18.90;73.30
39315;DHT22;28703;44.412;11.918;2023-04-07T14:50:54;18.90;73.30
39315;DHT22;28703;44.412;11.918;2023-04-07T14:53:20;18.80;73.20
39315;DHT22;28703;44.412;11.918;2023-04-07T14:55:46;18.80;73.30
39315;DHT22;28703;44.412;11.918;2023-04-07T14:58:11;18.80;73.20
39315;DHT22;28703;44.412;11.918;2023-04-07T15:00:37;18.70;73.20
39315;DHT22;28703;44.412;11.918;2023-04-07T15:03:03;18.70;73.70
39315;DHT22;28703;44.412;11.918;2023-04-07T15:05:29;18.70;74.00
39315;DHT22;28703;44.412;11.918;2023-04-07T15:07:54;18.60;73.30
39315;DHT22;28703;44.412;11.918;2023-04-07T15:13:23;18.60;74.10
39315;DHT22;28703;44.412;11.918;2023-04-07T15:15:49;18.50;73.90
39315;DHT22;28703;44.412;11.918;2023-04-07T15:18:15;18.40;74.30
39315;DHT22;28703;44.412;11.918;2023-04-07T15:20:41;18.30;74.50
39315;DHT22;28703;44.412;11.918;2023-04-07T15:23:06;18.30;75.00
39315;DHT22;28703;44.412;11.918;2023-04-07T15:25:33;18.20;75.80
39315;DHT22;28703;44.412;11.918;2023-04-07T15:30:45;18.10;76.80
39315;DHT22;28703;44.412;11.918;2023-04-07T15:33:11;17.90;77.20
39315;DHT22;28703;44.412;11.918;2023-04-07T15:35:37;17.90;77.30
39315;DHT22;28703;44.412;11.918;2023-04-07T15:38:03;17.80;78.60
39315;DHT22;28703;44.412;11.918;2023-04-07T15:40:28;17.70;78.60
39315;DHT22;28703;44.412;11.918;2023-04-07T15:42:54;17.60;79.10
39315;DHT22;28703;44.412;11.918;2023-04-07T15:48:24;17.40;79.60
39315;DHT22;28703;44.412;11.918;2023-04-07T15:50:51;17.30;80.30
39315;DHT22;28703;44.412;11.918;2023-04-07T15:53:17;17.20;80.60
39315;DHT22;28703;44.412;11.918;2023-04-07T15:55:43;17.10;81.00
39315;DHT22;28703;44.412;11.918;2023-04-07T15:58:11;17.00;81.00
39315;DHT22;28703;44.412;11.918;2023-04-07T16:00:37;16.90;80.90
39315;DHT22;28703;44.412;11.918;2023-04-07T16:03:04;16.80;81.60
39315;DHT22;28703;44.412;11.918;2023-04-07T16:05:30;16.80;82.60
39315;DHT22;28703;44.412;11.918;2023-04-07T16:07:56;16.70;82.20
39315;DHT22;28703;44.412;11.918;2023-04-07T16:10:32;16.60;82.30
39315;DHT22;28703;44.412;11.918;2023-04-07T16:12:58;16.50;82.70
39315;DHT22;28703;44.412;11.918;2023-04-07T16:18:09;16.40;82.80
39315;DHT22;28703;44.412;11.918;2023-04-07T16:23:20;16.30;83.70
39315;DHT22;28703;44.412;11.918;2023-04-07T16:28:30;16.10;84.40
39315;DHT22;28703;44.412;11.918;2023-04-07T16:30:56;16.10;84.70
39315;DHT22;28703;44.412;11.918;2023-04-07T16:33:22;16.00;85.20
39315;DHT22;28703;44.412;11.918;2023-04-07T16:35:48;15.90;84.80
39315;DHT22;28703;44.412;11.918;2023-04-07T16:40:58;15.80;84.90
39315;DHT22;28703;44.412;11.918;2023-04-07T16:43:24;15.80;86.10
39315;DHT22;28703;44.412;11.918;2023-04-07T16:45:50;15.80;86.40